Time;durP1;ratioP1;P1;durP2;ratioP2;P2;SDS_P1;SDS_P2;PMS_P1;PMS_P2;Temp;Humidity;BMP_temperature;BMP_pressure;BME280_temperature;BME280_humidity;BME280_pressure;Samples;Min_cycle;Max_cycle;Signal;HPM_P1;HPM_P2
2022/12/05 00:00:28;;;;;;;12.98;7.30;;;;;;;4.09;100.00;100729.50;6371817;27;20035;-75
2022/12/05 00:03:29;;;;;;;16.38;8.35;;;;;;;4.12;100.00;100732.00;6371703;27;20043;-76
2022/12/05 00:06:30;;;;;;;14.98;7.35;;;;;;;4.14;100.00;100732.81;6371650;27;20096;-75
2022/12/05 00:09:30;;;;;;;19.15;8.55;;;;;;;4.11;100.00;100731.16;6371662;27;20054;-77
2022/12/05 00:12:31;;;;;;;17.02;7.90;;;;;;;4.11;100.00;100730.31;6373038;27;20084;-77
2022/12/05 00:15:39;;;;;;;17.27;7.57;;;;;;;4.15;100.00;100734.53;6372903;27;20555;-77
2022/12/05 00:18:40;;;;;;;17.90;8.90;;;;;;;4.17;100.00;100731.03;6371634;27;20079;-77
2022/12/05 00:21:42;;;;;;;16.58;8.85;;;;;;;4.16;100.00;100733.63;6371491;27;20066;-77
2022/12/05 00:24:43;;;;;;;12.20;7.63;;;;;;;4.14;100.00;100727.66;6371760;27;20140;-76
2022/12/05 00:27:43;;;;;;;21.50;9.80;;;;;;;4.13;100.00;100731.13;6371104;27;20070;-77
2022/12/05 00:30:44;;;;;;;11.60;7.43;;;;;;;4.12;100.00;100724.25;6372537;27;20039;-75
2022/12/05 00:33:45;;;;;;;16.33;8.02;;;;;;;4.16;100.00;100728.47;6371217;27;20474;-77
2022/12/05 00:36:46;;;;;;;15.27;7.88;;;;;;;4.16;100.00;100720.72;6371432;27;20047;-77
2022/12/05 00:39:49;;;;;;;13.05;8.13;;;;;;;4.18;100.00;100722.41;6370922;27;20073;-75
2022/12/05 00:42:50;;;;;;;10.65;7.07;;;;;;;4.26;100.00;100717.03;6372124;27;20088;-77
2022/12/05 00:45:51;;;;;;;13.30;7.53;;;;;;;4.23;100.00;100725.72;6372302;27;20040;-77
2022/12/05 00:48:53;;;;;;;15.80;8.35;;;;;;;4.25;100.00;100730.84;6372053;27;20049;-75
2022/12/05 00:52:00;;;;;;;17.40;8.15;;;;;;;4.23;100.00;100733.47;6371124;28;20043;-77
2022/12/05 00:55:03;;;;;;;17.05;7.60;;;;;;;4.28;100.00;100742.84;6372081;27;20039;-75
2022/12/05 00:58:04;;;;;;;10.07;6.82;;;;;;;4.31;100.00;100733.28;6371943;27;20079;-77
2022/12/05 01:01:06;;;;;;;12.02;7.82;;;;;;;4.36;100.00;100743.50;6372047;27;20091;-77
2022/12/05 01:04:11;;;;;;;16.65;8.40;;;;;;;4.41;100.00;100741.66;6372031;28;20050;-75
2022/12/05 01:07:14;;;;;;;14.50;7.78;;;;;;;4.42;100.00;100738.19;6371936;28;20047;-77
2022/12/05 01:10:17;;;;;;;16.88;7.75;;;;;;;4.45;100.00;100745.88;6370621;28;20070;-75
2022/12/05 01:13:18;;;;;;;17.58;7.93;;;;;;;4.46;100.00;100744.97;6370564;28;20394;-77
2022/12/05 01:16:22;;;;;;;14.25;7.55;;;;;;;4.47;100.00;100746.69;6370924;28;20039;-75
2022/12/05 01:19:30;;;;;;;12.40;6.55;;;;;;;4.49;100.00;100744.91;6371671;27;20043;-75
2022/12/05 01:22:32;;;;;;;17.13;8.75;;;;;;;4.42;100.00;100735.59;6370564;28;20046;-77
2022/12/05 01:25:37;;;;;;;19.08;8.35;;;;;;;4.51;100.00;100743.13;6370567;28;20045;-75
2022/12/05 01:28:39;;;;;;;20.33;8.00;;;;;;;4.55;100.00;100741.31;6371656;27;20444;-77
2022/12/05 01:31:43;;;;;;;14.60;7.10;;;;;;;4.55;100.00;100742.19;6370585;28;20035;-75
2022/12/05 01:34:44;;;;;;;24.10;7.13;;;;;;;4.53;100.00;100741.38;6370504;28;20039;-77
2022/12/05 01:37:44;;;;;;;27.33;8.20;;;;;;;4.55;100.00;100736.13;6370409;28;20050;-75
2022/12/05 01:40:45;;;;;;;14.52;7.95;;;;;;;4.58;100.00;100741.25;6371534;27;20046;-77
2022/12/05 01:43:58;;;;;;;13.07;7.65;;;;;;;4.58;100.00;100736.06;6370577;28;20118;-77
2022/12/05 01:46:58;;;;;;;16.75;6.90;;;;;;;4.61;100.00;100742.03;6371589;28;20047;-77
2022/12/05 01:50:00;;;;;;;13.43;7.90;;;;;;;4.62;100.00;100742.84;6370584;28;20043;-77
2022/12/05 01:53:02;;;;;;;14.90;7.75;;;;;;;4.60;100.00;100742.06;6372058;27;20043;-75
2022/12/05 01:56:03;;;;;;;15.45;8.65;;;;;;;4.61;100.00;100746.31;6375921;27;20058;-75
2022/12/05 01:59:07;;;;;;;12.23;7.68;;;;;;;4.63;100.00;100742.81;6374609;27;20046;-74
2022/12/05 02:02:10;;;;;;;13.55;7.65;;;;;;;4.62;100.00;100741.13;6357393;27;20399;-77
2022/12/05 02:05:16;;;;;;;;;;;;;;;4.67;100.00;100735.81;6375127;27;20150;-77
2022/12/05 02:08:17;;;;;;;11.10;6.20;;;;;;;4.67;100.00;100735.81;6375798;27;19949;-77
2022/12/05 02:11:22;;;;;;;16.25;8.05;;;;;;;4.63;100.00;100736.78;6375777;27;20507;-77
2022/12/05 02:14:25;;;;;;;13.93;7.70;;;;;;;4.63;100.00;100742.81;6375920;27;20131;-75
2022/12/05 02:17:45;;;;;;;12.07;7.53;;;;;;;4.57;100.00;100742.97;6375653;27;20093;-77
2022/12/05 02:20:51;;;;;;;15.35;8.70;;;;;;;4.59;100.00;100741.22;6375592;27;20088;-77
2022/12/05 02:24:23;;;;;;;15.50;7.70;;;;;;;4.51;100.00;100747.44;6375375;27;20047;-75
2022/12/05 02:28:00;;;;;;;13.75;7.65;;;;;;;4.46;100.00;100737.22;6375230;27;20069;-75
2022/12/05 02:31:39;;;;;;;12.80;7.75;;;;;;;4.44;100.00;100732.06;6375204;27;20039;-77
2022/12/05 02:35:05;;;;;;;10.65;6.47;;;;;;;4.41;100.00;100731.31;6342736;27;20086;-75
2022/12/05 02:38:21;;;;;;;14.82;8.57;;;;;;;4.40;100.00;100745.97;6375008;27;20040;-75
2022/12/05 02:41:57;;;;;;;20.15;8.57;;;;;;;4.48;100.00;100740.63;6374908;27;20043;-77
2022/12/05 02:45:08;;;;;;;13.95;8.68;;;;;;;4.50;100.00;100741.44;6373603;27;20047;-77
2022/12/05 02:48:13;;;;;;;18.75;9.57;;;;;;;4.48;100.00;100735.44;6374917;27;20031;-77
2022/12/05 02:51:22;;;;;;;18.25;9.18;;;;;;;4.49;100.00;100741.44;6375242;27;20130;-76
2022/12/05 02:54:28;;;;;;;15.48;8.75;;;;;;;4.51;100.00;100742.25;6374709;27;20487;-75
2022/12/05 02:57:30;;;;;;;15.75;9.50;;;;;;;4.46;100.00;100737.22;6374685;27;20062;-77
2022/12/05 03:00:34;;;;;;;;;;;;;;;4.46;100.00;100737.22;6374005;27;20365;-75
2022/12/05 03:03:35;;;;;;;23.02;7.93;;;;;;;4.42;100.00;100731.28;6374420;27;19926;-75
2022/12/05 03:06:43;;;;;;;19.38;10.00;;;;;;;4.44;100.00;100729.50;6374240;27;20474;-75
2022/12/05 03:09:55;;;;;;;18.50;9.52;;;;;;;4.50;100.00;100727.66;6373010;27;20493;-75
2022/12/05 03:13:03;;;;;;;18.80;9.25;;;;;;;4.44;100.00;100741.56;6374402;27;20121;-75
2022/12/05 03:16:12;;;;;;;18.08;8.73;;;;;;;4.41;100.00;100733.91;6374082;27;20066;-77
2022/12/05 03:19:44;;;;;;;12.55;8.48;;;;;;;4.46;100.00;100744.13;6374251;27;20313;-77
2022/12/05 03:22:50;;;;;;;18.38;8.98;;;;;;;4.52;100.00;100733.63;6338138;27;20083;-76
2022/12/05 03:25:57;;;;;;;12.13;8.00;;;;;;;4.54;100.00;100737.88;6355563;27;20499;-75
2022/12/05 03:29:20;;;;;;;15.25;9.45;;;;;;;4.52;100.00;100736.22;6373817;27;20500;-77
2022/12/05 03:32:30;;;;;;;;;;;;;;;4.55;100.00;100746.47;6374229;27;20043;-77
2022/12/05 03:35:30;;;;;;;12.32;6.18;;;;;;;4.57;100.00;100747.28;6372550;27;19920;-77
2022/12/05 03:38:38;;;;;;;14.00;7.28;;;;;;;4.54;100.00;100742.19;6373704;27;20035;-77
2022/12/05 03:41:47;;;;;;;14.52;7.47;;;;;;;4.54;100.00;100745.63;6372171;27;20039;-77
2022/12/05 03:45:00;;;;;;;21.80;9.07;;;;;;;4.58;100.00;100760.19;6373573;27;20042;-77
2022/12/05 03:48:13;;;;;;;16.92;7.82;;;;;;;4.55;100.00;100755.09;6372337;27;20039;-77
2022/12/05 03:51:17;;;;;;;18.42;8.93;;;;;;;4.58;100.00;100762.75;6373497;27;20490;-77
2022/12/05 03:54:28;;;;;;;24.85;8.35;;;;;;;4.62;100.00;100759.22;6373301;27;20042;-76
2022/12/05 03:57:42;;;;;;;15.63;7.55;;;;;;;4.62;100.00;100760.94;6371947;27;20051;-75
2022/12/05 04:00:48;;;;;;;17.48;9.27;;;;;;;4.57;100.00;100745.56;6372996;27;20039;-75
2022/12/05 04:03:54;;;;;;;17.13;8.80;;;;;;;4.48;100.00;100740.63;6371628;27;20039;-75
2022/12/05 04:06:59;;;;;;;14.23;7.85;;;;;;;4.58;100.00;100749.84;6371575;27;20118;-75
2022/12/05 04:10:07;;;;;;;18.85;8.60;;;;;;;4.64;100.00;100769.53;6371722;27;20071;-76
2022/12/05 04:13:16;;;;;;;17.73;8.85;;;;;;;4.67;100.00;100766.00;6372732;27;20043;-77
2022/12/05 04:17:04;;;;;;;17.65;10.15;;;;;;;4.65;100.00;100760.84;6372478;27;20039;-77
2022/12/05 04:23:35;;;;;;;20.45;8.77;;;;;;;4.63;100.00;100760.94;6372406;27;20093;-77
2022/12/05 04:26:43;;;;;;;21.42;10.70;;;;;;;4.71;100.00;100760.72;6372538;27;20039;-76
2022/12/05 04:30:02;;;;;;;14.85;8.75;;;;;;;4.71;100.00;100760.72;6371097;27;20388;-76
2022/12/05 04:33:22;;;;;;;19.48;10.63;;;;;;;4.70;100.00;100750.44;6372401;27;20039;-77
2022/12/05 04:36:33;;;;;;;14.60;9.75;;;;;;;4.70;100.00;100756.44;6372480;27;20521;-77
2022/12/05 04:39:46;;;;;;;14.02;9.52;;;;;;;4.71;100.00;100755.53;6372332;27;20507;-77
2022/12/05 04:42:52;;;;;;;14.50;8.27;;;;;;;4.76;100.00;100753.69;6371100;27;20035;-76
2022/12/05 04:45:56;;;;;;;17.30;9.55;;;;;;;4.71;100.00;100760.72;6372221;27;20043;-77
2022/12/05 04:48:59;;;;;;;18.27;9.27;;;;;;;4.72;100.00;100757.25;6370908;28;20047;-76
2022/12/05 04:52:04;;;;;;;15.98;10.20;;;;;;;4.68;100.00;100750.47;6372039;27;20437;-77
2022/12/05 04:55:13;;;;;;;15.25;9.65;;;;;;;4.69;100.00;100756.47;6370864;28;20122;-77
2022/12/05 04:58:18;;;;;;;14.07;8.27;;;;;;;4.69;100.00;100759.91;6372006;27;20051;-76
2022/12/05 05:01:30;;;;;;;14.70;8.32;;;;;;;4.73;100.00;100764.09;6370939;28;20039;-76
2022/12/05 05:04:35;;;;;;;15.27;9.35;;;;;;;4.75;100.00;100764.91;6371979;27;20039;-76
2022/12/05 05:07:45;;;;;;;17.58;9.20;;;;;;;4.76;100.00;100764.03;6371874;27;20186;-75
2022/12/05 05:11:20;;;;;;;14.55;8.35;;;;;;;4.72;100.00;100765.00;6370803;28;20039;-75
2022/12/05 05:14:21;;;;;;;16.60;8.20;;;;;;;4.68;100.00;100753.03;6365869;28;20055;-76
2022/12/05 05:17:22;;;;;;;21.98;8.95;;;;;;;4.71;100.00;100765.88;6353606;28;20387;-75
2022/12/05 05:20:26;;;;;;;19.27;9.70;;;;;;;4.71;100.00;100763.28;6372018;27;20526;-76
2022/12/05 05:23:26;;;;;;;24.92;11.43;;;;;;;4.72;100.00;100759.00;6370415;28;20143;-76
2022/12/05 05:26:28;;;;;;;15.05;8.60;;;;;;;4.75;100.00;100764.06;6371740;27;20478;-75
2022/12/05 05:29:29;;;;;;;22.17;10.43;;;;;;;4.74;100.00;100767.56;6373757;27;20159;-77
2022/12/05 05:32:35;;;;;;;17.27;10.27;;;;;;;4.79;100.00;100761.34;6375465;27;20572;-77
2022/12/05 05:35:36;;;;;;;16.38;9.25;;;;;;;4.81;100.00;100763.91;6376732;27;20043;-76
2022/12/05 05:38:38;;;;;;;18.23;10.07;;;;;;;4.81;100.00;100762.16;6375440;27;20501;-75
2022/12/05 05:41:39;;;;;;;14.50;8.82;;;;;;;4.82;100.00;100765.63;6376564;27;20036;-77
2022/12/05 05:44:40;;;;;;;17.20;9.27;;;;;;;4.82;100.00;100760.47;6376257;27;20043;-75
2022/12/05 05:47:44;;;;;;;17.95;9.75;;;;;;;4.82;100.00;100768.22;6375577;27;20186;-76
2022/12/05 05:50:44;;;;;;;21.45;9.32;;;;;;;4.82;100.00;100766.47;6373887;27;20058;-76
2022/12/05 05:53:45;;;;;;;14.75;9.27;;;;;;;4.84;100.00;100756.09;6373938;27;20518;-76
2022/12/05 05:56:51;;;;;;;15.65;10.48;;;;;;;4.84;100.00;100762.09;6375060;27;20108;-77
2022/12/05 05:59:51;;;;;;;16.20;9.43;;;;;;;4.87;100.00;100768.94;6375221;27;20538;-77
2022/12/05 06:02:52;;;;;;;17.33;10.05;;;;;;;4.85;100.00;100768.97;6374435;27;20057;-75
2022/12/05 06:05:57;;;;;;;18.48;11.27;;;;;;;4.87;100.00;100773.25;6375644;27;20039;-77
2022/12/05 06:08:58;;;;;;;14.93;8.93;;;;;;;4.85;100.00;100774.13;6374579;27;20073;-76
2022/12/05 06:11:58;;;;;;;16.48;9.68;;;;;;;4.84;100.00;100776.78;6374338;27;20485;-76
2022/12/05 06:14:59;;;;;;;20.77;9.38;;;;;;;4.86;100.00;100780.19;6357107;27;20494;-75
2022/12/05 06:18:00;;;;;;;13.43;8.73;;;;;;;4.88;100.00;100780.09;6375543;27;20451;-77
2022/12/05 06:21:01;;;;;;;16.25;9.82;;;;;;;4.92;100.00;100781.72;6375514;27;20050;-77
2022/12/05 06:24:02;;;;;;;16.40;9.32;;;;;;;4.89;100.00;100787.84;6374084;27;20070;-77
2022/12/05 06:27:03;;;;;;;18.25;10.70;;;;;;;4.90;100.00;100792.13;6374090;27;20047;-75
2022/12/05 06:30:05;;;;;;;22.75;11.55;;;;;;;4.88;100.00;100786.16;6373915;27;20462;-77
2022/12/05 06:33:05;;;;;;;18.65;11.05;;;;;;;4.92;100.00;100789.50;6375093;27;20043;-75
2022/12/05 06:36:09;;;;;;;18.02;10.10;;;;;;;4.91;100.00;100796.41;6373765;27;20453;-77
2022/12/05 06:39:09;;;;;;;18.60;11.18;;;;;;;4.90;100.00;100796.44;6374519;27;20087;-75
2022/12/05 06:42:11;;;;;;;16.90;10.18;;;;;;;4.90;100.00;100793.84;6373540;27;20051;-75
2022/12/05 06:45:14;;;;;;;22.08;10.23;;;;;;;4.92;100.00;100798.13;6373526;27;20043;-77
2022/12/05 06:48:15;;;;;;;18.65;11.20;;;;;;;4.91;100.00;100799.00;6374768;27;20076;-76
2022/12/05 06:51:16;;;;;;;17.35;9.98;;;;;;;4.88;100.00;100796.50;6373411;27;20474;-75
2022/12/05 06:54:16;;;;;;;17.75;10.63;;;;;;;4.90;100.00;100801.59;6374452;27;20039;-75
2022/12/05 06:57:17;;;;;;;21.65;10.20;;;;;;;4.93;100.00;100804.97;6374239;27;20125;-76
2022/12/05 07:03:39;;;;;;;14.88;9.18;;;;;;;5.08;100.00;100811.47;6372869;27;20062;-76
2022/12/05 07:06:42;;;;;;;22.87;10.43;;;;;;;5.12;100.00;100800.16;6374316;27;20547;-76
2022/12/05 07:09:47;;;;;;;25.65;13.65;;;;;;;5.14;100.00;100810.47;6374258;27;20401;-76
2022/12/05 07:12:47;;;;;;;23.50;13.80;;;;;;;5.18;100.00;100812.94;6374222;27;20053;-76
2022/12/05 07:15:49;;;;;;;21.17;12.98;;;;;;;5.20;100.00;100815.50;6374250;27;20519;-76
2022/12/05 07:18:49;;;;;;;24.13;14.05;;;;;;;5.25;100.00;100822.25;6373925;27;20035;-75
2022/12/05 07:21:50;;;;;;;21.92;13.48;;;;;;;5.29;100.00;100832.50;6372664;27;20148;-74
2022/12/05 07:24:52;;;;;;;25.50;14.70;;;;;;;5.29;100.00;100824.75;6372484;27;20039;-76
2022/12/05 07:27:52;;;;;;;41.13;19.73;;;;;;;5.32;100.00;100825.50;6372520;27;20050;-75
2022/12/05 07:31:11;;;;;;;24.60;14.43;;;;;;;5.37;100.00;100828.81;6372458;27;20042;-76
2022/12/05 07:34:12;;;;;;;26.95;14.10;;;;;;;5.36;100.00;100821.94;6372365;27;20039;-74
2022/12/05 07:37:13;;;;;;;33.63;14.77;;;;;;;5.40;100.00;100827.91;6372477;27;20507;-75
2022/12/05 07:40:14;;;;;;;22.27;13.15;;;;;;;5.40;100.00;100831.34;6355043;27;20046;-75
2022/12/05 07:43:14;;;;;;;24.80;13.10;;;;;;;5.39;100.00;100832.22;6373411;27;20035;-76
2022/12/05 07:46:16;;;;;;;20.15;11.75;;;;;;;5.32;100.00;100832.44;6372121;27;20467;-75
2022/12/05 07:49:17;;;;;;;23.60;13.20;;;;;;;5.36;100.00;100836.63;6371898;27;20054;-76
2022/12/05 07:52:17;;;;;;;23.05;13.52;;;;;;;5.36;100.00;100834.06;6372381;27;20032;-75
2022/12/05 07:55:21;;;;;;;28.45;15.30;;;;;;;5.29;100.00;100837.69;6372124;27;20039;-76
2022/12/05 07:58:22;;;;;;;23.98;12.90;;;;;;;5.38;100.00;100842.63;6372817;27;20070;-75
2022/12/05 08:01:25;;;;;;;26.33;15.48;;;;;;;5.32;100.00;100835.88;6371621;27;20053;-75
2022/12/05 08:04:26;;;;;;;24.67;14.40;;;;;;;5.29;100.00;100845.44;6371408;27;20490;-75
2022/12/05 08:07:27;;;;;;;25.38;14.45;;;;;;;5.30;100.00;100829.88;6372713;27;20092;-75
2022/12/05 08:10:27;;;;;;;23.00;13.13;;;;;;;5.30;100.00;100834.22;6371451;27;20066;-75
2022/12/05 08:13:29;;;;;;;20.70;12.68;;;;;;;5.32;100.00;100837.63;6371280;27;20494;-75
2022/12/05 08:16:31;;;;;;;21.70;10.80;;;;;;;5.30;100.00;100836.81;6372480;27;20039;-76
2022/12/05 08:19:31;;;;;;;20.65;10.93;;;;;;;5.28;100.00;100838.59;6371505;27;20092;-76
2022/12/05 08:22:32;;;;;;;21.00;11.05;;;;;;;5.32;100.00;100830.69;6371365;27;20114;-76
2022/12/05 08:25:33;;;;;;;23.33;11.00;;;;;;;5.29;100.00;100843.69;6372256;27;20039;-76
2022/12/05 08:28:35;;;;;;;21.20;10.05;;;;;;;5.28;100.00;100847.19;6372368;27;20043;-76
2022/12/05 08:31:39;;;;;;;17.92;10.35;;;;;;;5.31;100.00;100836.75;6371135;27;20402;-76
2022/12/05 08:34:40;;;;;;;20.40;11.07;;;;;;;5.38;100.00;100837.44;6371043;27;20039;-75
2022/12/05 08:37:41;;;;;;;22.52;12.65;;;;;;;5.34;100.00;100834.09;6370965;27;20452;-76
2022/12/05 08:40:42;;;;;;;18.70;10.88;;;;;;;5.34;100.00;100828.91;6370957;27;20498;-76
2022/12/05 08:43:45;;;;;;;17.20;10.52;;;;;;;5.35;100.00;100832.34;6372157;27;20092;-76
2022/12/05 08:46:49;;;;;;;22.40;10.23;;;;;;;5.40;100.00;100828.75;6371974;27;20130;-76
2022/12/05 08:49:51;;;;;;;20.52;10.50;;;;;;;5.40;100.00;100833.91;6370786;27;20039;-76
2022/12/05 08:52:52;;;;;;;15.50;8.38;;;;;;;5.46;100.00;100819.97;6372002;27;20035;-76
2022/12/05 08:55:53;;;;;;;12.57;7.75;;;;;;;5.48;100.00;100823.38;6371964;27;20131;-76
2022/12/05 08:58:54;;;;;;;14.38;8.98;;;;;;;5.57;100.00;100819.66;6371943;28;20074;-75
2022/12/05 09:01:55;;;;;;;13.82;6.70;;;;;;;5.61;100.00;100814.34;6371336;27;20041;-75
2022/12/05 09:04:56;;;;;;;16.65;9.55;;;;;;;5.61;100.00;100819.53;6375823;27;20043;-76
2022/12/05 09:07:59;;;;;;;17.60;10.70;;;;;;;5.67;100.00;100815.91;6375857;27;20070;-75
2022/12/05 09:11:05;;;;;;;14.45;8.77;;;;;;;5.73;100.00;100815.75;6376952;27;20035;-75
2022/12/05 09:14:06;;;;;;;12.68;7.50;;;;;;;5.76;100.00;100810.47;6376940;27;20398;-75
2022/12/05 09:17:07;;;;;;;15.07;7.55;;;;;;;5.74;100.00;100804.47;6358321;27;20054;-75
2022/12/05 09:20:10;;;;;;;11.70;7.05;;;;;;;5.81;100.00;100803.44;6377118;27;20047;-75
2022/12/05 09:23:13;;;;;;;13.75;8.02;;;;;;;5.86;100.00;100805.88;6375510;27;20036;-75
2022/12/05 09:26:17;;;;;;;15.18;8.05;;;;;;;5.93;100.00;100801.34;6376515;27;20482;-75
2022/12/05 09:29:18;;;;;;;12.27;7.20;;;;;;;5.90;100.00;100797.13;6375426;27;20043;-76
2022/12/05 09:32:21;;;;;;;15.90;8.18;;;;;;;5.98;100.00;100792.59;6376602;27;20039;-76
2022/12/05 09:35:22;;;;;;;22.10;11.10;;;;;;;6.09;100.00;100794.00;6376451;27;20039;-75
2022/12/05 09:38:23;;;;;;;20.25;12.15;;;;;;;6.15;100.00;100786.88;6375260;27;20049;-76
2022/12/05 09:45:03;;;;;;;24.08;9.80;;;;;;;6.13;100.00;100793.84;6376253;27;20035;-76
2022/12/05 09:48:04;;;;;;;22.73;10.88;;;;;;;6.23;100.00;100790.09;6357664;27;20053;-75
2022/12/05 09:51:09;;;;;;;17.90;10.27;;;;;;;6.31;100.00;100782.06;6375996;27;20432;-75
2022/12/05 09:54:11;;;;;;;17.95;9.77;;;;;;;6.31;100.00;100776.91;6374782;27;20043;-75
2022/12/05 09:57:15;;;;;;;;;;;;;;;6.35;100.00;100773.31;6374874;27;20055;-75
2022/12/05 10:00:17;;;;;;;14.50;7.35;;;;;;;6.39;100.00;100777.50;6357394;27;20402;-75
2022/12/05 10:03:24;;;;;;;13.60;8.02;;;;;;;6.42;100.00;100779.13;6374423;27;20593;-75
2022/12/05 10:06:37;;;;;;;14.15;7.75;;;;;;;6.44;100.00;100772.16;6374485;27;20045;-76
2022/12/05 10:10:02;;;;;;;12.82;7.78;;;;;;;6.52;100.00;100777.94;6375852;27;20060;-75
2022/12/05 10:13:18;;;;;;;15.52;8.52;;;;;;;6.52;100.00;100775.34;6374525;27;20050;-76
2022/12/05 10:16:52;;;;;;;14.32;7.40;;;;;;;6.56;100.00;100770.91;6373768;27;20093;-76
2022/12/05 10:19:57;;;;;;;18.42;10.98;;;;;;;6.63;100.00;100772.41;6340267;27;20548;-75
2022/12/05 10:23:05;;;;;;;24.38;12.38;;;;;;;6.62;100.00;100781.09;6375359;27;20043;-77
2022/12/05 10:26:12;;;;;;;23.52;13.23;;;;;;;6.54;100.00;100783.09;6374083;27;20050;-76
2022/12/05 10:29:26;;;;;;;23.45;11.43;;;;;;;6.61;100.00;100780.25;6375344;27;20083;-75
2022/12/05 10:32:34;;;;;;;18.02;10.52;;;;;;;6.64;100.00;100774.94;6374961;27;20050;-76
2022/12/05 10:35:37;;;;;;;19.20;11.50;;;;;;;6.71;100.00;100775.59;6375042;27;20092;-76
2022/12/05 10:38:39;;;;;;;18.27;11.23;;;;;;;6.76;100.00;100784.06;6373717;27;20120;-76
2022/12/05 10:41:40;;;;;;;14.95;8.57;;;;;;;6.80;100.00;100770.09;6375066;27;20043;-77
2022/12/05 10:44:43;;;;;;;12.10;7.57;;;;;;;6.71;100.00;100777.34;6373497;27;20054;-75
2022/12/05 10:47:45;;;;;;;16.08;8.68;;;;;;;6.84;100.00;100769.09;6374587;27;20046;-75
2022/12/05 10:50:56;;;;;;;13.18;7.95;;;;;;;6.88;100.00;100772.44;6374756;27;20045;-76
2022/12/05 10:53:57;;;;;;;16.27;8.50;;;;;;;6.90;100.00;100770.66;6374653;27;20448;-76
2022/12/05 10:57:00;;;;;;;14.30;8.32;;;;;;;6.86;100.00;100766.47;6374123;27;20050;-76
2022/12/05 11:00:14;;;;;;;17.30;9.13;;;;;;;6.83;100.00;100762.19;6374569;27;20046;-76
2022/12/05 11:03:28;;;;;;;14.90;8.20;;;;;;;6.81;100.00;100752.78;6373070;27;20454;-76
2022/12/05 11:06:35;;;;;;;12.80;7.82;;;;;;;6.81;100.00;100752.78;6355809;27;20434;-76
2022/12/05 11:09:37;;;;;;;20.80;12.70;;;;;;;6.76;100.00;100755.53;6373103;27;20065;-76
2022/12/05 11:12:40;;;;;;;;;;;;;;;6.75;100.00;100745.22;6373483;27;20047;-76
2022/12/05 11:15:45;;;;;;;;;;;;;;;6.75;100.00;100751.25;6373255;27;20366;-76
2022/12/05 11:18:48;;;;;;;13.40;6.95;;;;;;;6.72;100.00;100738.38;6374089;27;19926;-76
2022/12/05 11:21:50;;;;;;;11.77;7.75;;;;;;;6.78;100.00;100735.59;6374530;27;20428;-75
2022/12/05 11:24:50;;;;;;;11.00;6.97;;;;;;;6.76;100.00;100733.94;6373575;27;20490;-76
2022/12/05 11:27:54;;;;;;;11.38;6.65;;;;;;;6.82;100.00;100726.78;6371605;27;20096;-75
2022/12/05 11:31:01;;;;;;;16.58;8.35;;;;;;;6.86;100.00;100740.50;6372498;27;20047;-75
2022/12/05 11:34:16;;;;;;;14.15;7.05;;;;;;;6.89;100.00;100730.03;6372506;27;20494;-76
2022/12/05 11:37:28;;;;;;;15.27;7.93;;;;;;;6.90;100.00;100725.66;6373494;27;20043;-76
2022/12/05 11:40:46;;;;;;;14.70;7.68;;;;;;;6.91;100.00;100723.03;6372592;27;20040;-76
2022/12/05 11:44:24;;;;;;;15.68;8.35;;;;;;;6.95;100.00;100721.19;6372296;27;20043;-76
2022/12/05 11:48:07;;;;;;;16.75;8.57;;;;;;;6.98;100.00;100711.56;6354880;27;20146;-75
2022/12/05 11:51:37;;;;;;;12.30;6.93;;;;;;;6.94;100.00;100709.09;6372028;27;20035;-75
2022/12/05 11:55:12;;;;;;;12.55;6.85;;;;;;;6.99;100.00;100702.00;6373254;27;20517;-76
2022/12/05 11:58:25;;;;;;;13.00;6.80;;;;;;;7.04;100.00;100698.34;6371651;27;20111;-76
2022/12/05 12:01:53;;;;;;;14.50;7.15;;;;;;;7.11;100.00;100698.13;6372986;27;20043;-76
2022/12/05 12:04:54;;;;;;;12.88;7.30;;;;;;;7.08;100.00;100696.47;6373018;27;20039;-75
2022/12/05 12:08:16;;;;;;;11.32;7.28;;;;;;;7.13;100.00;100685.94;6372671;27;20073;-75
2022/12/05 12:11:39;;;;;;;10.52;6.80;;;;;;;7.22;100.00;100683.84;6371692;27;20039;-76
2022/12/05 12:14:59;;;;;;;16.58;8.60;;;;;;;7.26;100.00;100682.81;6354454;27;20078;-76
2022/12/05 12:18:09;;;;;;;15.50;7.28;;;;;;;7.34;100.00;100679.13;6371393;27;20054;-76
2022/12/05 12:21:18;;;;;;;11.68;7.57;;;;;;;7.32;100.00;100683.50;6371526;27;20043;-76
2022/12/05 12:24:25;;;;;;;14.80;7.60;;;;;;;7.26;100.00;100674.19;6373126;27;20394;-75
2022/12/05 12:27:37;;;;;;;15.30;7.97;;;;;;;7.35;100.00;100660.03;6370880;27;20449;-75
2022/12/05 12:31:09;;;;;;;12.57;7.22;;;;;;;7.38;100.00;100660.75;6372515;27;20050;-75
2022/12/05 12:34:16;;;;;;;13.32;7.28;;;;;;;7.41;100.00;100658.06;6372404;27;20107;-76
2022/12/05 12:37:33;;;;;;;14.93;7.32;;;;;;;7.40;100.00;100651.16;6370733;27;20050;-76
2022/12/05 12:40:49;;;;;;;12.15;7.22;;;;;;;7.47;100.00;100647.44;6371175;27;20041;-76
2022/12/05 12:44:02;;;;;;;13.35;7.40;;;;;;;7.53;100.00;100648.09;6371099;27;20458;-76
2022/12/05 12:47:12;;;;;;;13.52;6.45;;;;;;;7.54;100.00;100644.59;6372168;27;20372;-76
2022/12/05 12:50:19;;;;;;;14.70;7.43;;;;;;;7.60;100.00;100649.56;6370651;27;20070;-75
2022/12/05 12:54:04;;;;;;;9.35;6.05;;;;;;;7.68;100.00;100650.09;6370941;28;20043;-76
2022/12/05 12:57:21;;;;;;;12.85;7.20;;;;;;;7.69;100.00;100649.19;6353515;28;20062;-76
2022/12/05 13:00:44;;;;;;;10.65;6.45;;;;;;;7.64;100.00;100649.38;6370759;28;20062;-77
2022/12/05 13:04:01;;;;;;;10.02;5.55;;;;;;;7.66;100.00;100647.56;6353705;28;20062;-75
2022/12/05 13:07:19;;;;;;;10.48;6.35;;;;;;;7.60;100.00;100653.00;6371872;27;20039;-76
2022/12/05 13:10:36;;;;;;;8.88;5.55;;;;;;;7.66;100.00;100655.34;6370581;28;20559;-75
2022/12/05 13:13:42;;;;;;;14.05;6.55;;;;;;;7.74;100.00;100643.78;6370482;28;20051;-76
2022/12/05 13:16:50;;;;;;;13.80;7.05;;;;;;;7.63;100.00;100634.69;6371880;27;20116;-76
2022/12/05 13:19:52;;;;;;;13.07;7.57;;;;;;;7.65;100.00;100634.63;6371776;27;20114;-75
2022/12/05 13:22:54;;;;;;;19.05;9.32;;;;;;;7.78;100.00;100635.84;6370435;28;20533;-75
2022/12/05 13:25:59;;;;;;;23.10;11.90;;;;;;;7.71;100.00;100644.78;6371717;27;20561;-75
2022/12/05 13:29:03;;;;;;;16.50;9.73;;;;;;;7.73;100.00;100636.94;6371526;27;20073;-75
2022/12/05 13:32:05;;;;;;;16.20;8.68;;;;;;;7.62;100.00;100640.78;6370343;28;20373;-76
2022/12/05 13:35:06;;;;;;;13.00;7.57;;;;;;;7.65;100.00;100634.63;6353184;28;20047;-75
2022/12/05 13:42:16;;;;;;;15.70;7.50;;;;;;;7.60;100.00;100637.41;6371502;28;20357;-75
2022/12/05 13:45:19;;;;;;;18.35;7.22;;;;;;;7.49;100.00;100636.97;6370249;28;20410;-76
2022/12/05 13:48:24;;;;;;;14.38;6.60;;;;;;;7.46;100.00;100632.75;6371213;27;20176;-76
2022/12/05 13:51:36;;;;;;;10.95;6.55;;;;;;;7.53;100.00;100635.09;6375861;27;20050;-76
2022/12/05 13:54:44;;;;;;;11.73;6.22;;;;;;;7.38;100.00;100632.19;6374746;27;20043;-75
2022/12/05 13:57:48;;;;;;;10.77;6.50;;;;;;;7.34;100.00;100622.84;6375823;27;20063;-75
2022/12/05 14:00:50;;;;;;;10.02;6.40;;;;;;;7.33;100.00;100630.69;6374618;27;20088;-75
2022/12/05 14:03:50;;;;;;;13.82;7.97;;;;;;;7.39;100.00;100628.72;6374855;27;20039;-75
2022/12/05 14:06:51;;;;;;;12.32;8.15;;;;;;;7.32;100.00;100629.00;6374378;27;20054;-75
2022/12/05 14:09:53;;;;;;;13.80;9.18;;;;;;;7.30;100.00;100625.63;6374342;27;20080;-75
2022/12/05 14:12:57;;;;;;;14.38;7.50;;;;;;;7.23;100.00;100628.44;6374535;27;20114;-76
2022/12/05 14:16:30;;;;;;;11.38;6.20;;;;;;;7.19;100.00;100618.25;6374573;27;20054;-75
2022/12/05 14:19:52;;;;;;;13.52;7.90;;;;;;;7.19;100.00;100621.69;6312509;27;20107;-75
2022/12/05 14:23:07;;;;;;;13.32;7.88;;;;;;;7.19;100.00;100629.47;6375489;27;20039;-75
2022/12/05 14:26:38;;;;;;;9.45;6.22;;;;;;;7.20;100.00;100625.94;6375231;27;20084;-75
2022/12/05 14:29:57;;;;;;;13.95;7.90;;;;;;;7.23;100.00;100625.84;6374116;27;20050;-76
2022/12/05 14:33:00;;;;;;;13.63;7.85;;;;;;;7.16;100.00;100620.94;6374086;27;20126;-77